Terminal Aerodrome Forecast
Issued by NWS

Home | Current Version | Previous Version | Text Only | Print | Product List | Glossary On
Versions: 1 2 3 4 5 6 7 8 9 10 11 12 13 14 15 16
294
FTUS43 KGRB 251333 AAA
TAFAUW
TAF AMD
KAUW 251333Z 2514/2612 22008KT P6SM SCT040 BKN100
      TEMPO 2514/2516 -SHRA
     FM251800 22012G18KT P6SM SCT050 BKN100
     FM252100 22011G17KT P6SM VCSH SCT035 OVC060
      TEMPO 2522/2602 3SM +TSRA BKN025CB
     FM260200 24006KT P6SM VCSH OVC045
     FM260800 25004KT 5SM BR SCT012 OVC025
      TEMPO 2608/2612 2SM BR BKN012=

USA.gov is the U.S. government's official web portal to all federal, state and local government web resources and services.